Terminal Aerodrome Forecast
Issued by NWS

Home | Current Version | Previous Version | Text Only | Print | Product List | Glossary On
Versions: 1 2 3 4 5 6 7 8 9 10 11 12 13 14 15 16 17 18 19 20 21 22 23 24
000
FTUS44 KEPZ 202332
TAFDMN
TAF
KDMN 202332Z 2100/2124 08012G20KT P6SM SCT120 SCT230
     FM210300 08010G17KT P6SM VCSH SCT070 BKN120 OVC200
     FM211400 09011KT P6SM VCSH BKN060 OVC110=

USA.gov is the U.S. government's official web portal to all federal, state and local government web resources and services.